sensor_id;sensor_type;location;lat;lon;timestamp;P1;durP1;ratioP1;P2;durP2;ratioP2
69678;SDS011;56915;52.046;4.854;2023-03-14T00:01:28;9.23;;;1.03;;
69678;SDS011;56915;52.046;4.854;2023-03-14T00:03:55;11.45;;;1.73;;
69678;SDS011;56915;52.046;4.854;2023-03-14T00:06:22;12.35;;;1.98;;
69678;SDS011;56915;52.046;4.854;2023-03-14T00:08:49;14.60;;;1.90;;
69678;SDS011;56915;52.046;4.854;2023-03-14T00:11:19;12.15;;;1.83;;
69678;SDS011;56915;52.046;4.854;2023-03-14T00:13:48;9.00;;;1.80;;
69678;SDS011;56915;52.046;4.854;2023-03-14T00:16:16;15.18;;;2.15;;
69678;SDS011;56915;52.046;4.854;2023-03-14T00:18:43;13.57;;;2.47;;
69678;SDS011;56915;52.046;4.854;2023-03-14T00:21:10;13.70;;;1.60;;
69678;SDS011;56915;52.046;4.854;2023-03-14T00:23:38;12.10;;;1.77;;
69678;SDS011;56915;52.046;4.854;2023-03-14T00:26:16;9.97;;;1.50;;
69678;SDS011;56915;52.046;4.854;2023-03-14T00:28:44;6.78;;;1.45;;
69678;SDS011;56915;52.046;4.854;2023-03-14T00:31:13;8.30;;;1.40;;
69678;SDS011;56915;52.046;4.854;2023-03-14T00:33:42;4.18;;;0.98;;
69678;SDS011;56915;52.046;4.854;2023-03-14T00:36:10;5.78;;;0.95;;
69678;SDS011;56915;52.046;4.854;2023-03-14T00:38:39;7.47;;;1.30;;
69678;SDS011;56915;52.046;4.854;2023-03-14T00:41:09;5.72;;;1.10;;
69678;SDS011;56915;52.046;4.854;2023-03-14T00:43:37;3.85;;;0.98;;
69678;SDS011;56915;52.046;4.854;2023-03-14T00:46:04;7.18;;;1.15;;
69678;SDS011;56915;52.046;4.854;2023-03-14T00:48:31;8.30;;;1.00;;
69678;SDS011;56915;52.046;4.854;2023-03-14T00:50:58;6.40;;;1.00;;
69678;SDS011;56915;52.046;4.854;2023-03-14T00:53:25;8.50;;;1.52;;
69678;SDS011;56915;52.046;4.854;2023-03-14T00:55:52;5.70;;;1.40;;
69678;SDS011;56915;52.046;4.854;2023-03-14T00:58:19;7.00;;;1.70;;
69678;SDS011;56915;52.046;4.854;2023-03-14T01:00:46;8.73;;;1.52;;
69678;SDS011;56915;52.046;4.854;2023-03-14T01:03:13;6.43;;;1.30;;
69678;SDS011;56915;52.046;4.854;2023-03-14T01:05:41;10.38;;;1.50;;
69678;SDS011;56915;52.046;4.854;2023-03-14T01:08:08;9.25;;;1.38;;
69678;SDS011;56915;52.046;4.854;2023-03-14T01:10:37;7.50;;;1.60;;
69678;SDS011;56915;52.046;4.854;2023-03-14T01:13:06;8.02;;;2.00;;
69678;SDS011;56915;52.046;4.854;2023-03-14T01:15:34;11.23;;;1.83;;
69678;SDS011;56915;52.046;4.854;2023-03-14T01:18:02;10.02;;;1.70;;
69678;SDS011;56915;52.046;4.854;2023-03-14T01:20:30;7.38;;;1.30;;
69678;SDS011;56915;52.046;4.854;2023-03-14T01:22:57;8.60;;;1.10;;
69678;SDS011;56915;52.046;4.854;2023-03-14T01:25:24;10.63;;;1.40;;
69678;SDS011;56915;52.046;4.854;2023-03-14T01:27:50;9.37;;;1.17;;
69678;SDS011;56915;52.046;4.854;2023-03-14T01:30:17;7.25;;;1.00;;
69678;SDS011;56915;52.046;4.854;2023-03-14T01:32:44;9.55;;;1.17;;
69678;SDS011;56915;52.046;4.854;2023-03-14T01:35:11;11.95;;;1.30;;
69678;SDS011;56915;52.046;4.854;2023-03-14T01:37:38;8.50;;;1.10;;
69678;SDS011;56915;52.046;4.854;2023-03-14T01:40:04;8.73;;;1.40;;
69678;SDS011;56915;52.046;4.854;2023-03-14T01:42:32;6.60;;;1.30;;
69678;SDS011;56915;52.046;4.854;2023-03-14T01:44:59;10.05;;;1.25;;
69678;SDS011;56915;52.046;4.854;2023-03-14T01:47:29;11.30;;;1.40;;
69678;SDS011;56915;52.046;4.854;2023-03-14T01:49:59;8.73;;;1.30;;
69678;SDS011;56915;52.046;4.854;2023-03-14T01:52:35;7.40;;;1.10;;
69678;SDS011;56915;52.046;4.854;2023-03-14T01:55:09;7.60;;;1.10;;
69678;SDS011;56915;52.046;4.854;2023-03-14T01:57:43;6.03;;;0.82;;
69678;SDS011;56915;52.046;4.854;2023-03-14T02:00:18;7.95;;;0.85;;
69678;SDS011;56915;52.046;4.854;2023-03-14T02:02:58;4.38;;;0.90;;
69678;SDS011;56915;52.046;4.854;2023-03-14T02:05:35;7.03;;;0.97;;
69678;SDS011;56915;52.046;4.854;2023-03-14T02:08:10;10.00;;;0.80;;
69678;SDS011;56915;52.046;4.854;2023-03-14T02:10:41;3.65;;;0.73;;
69678;SDS011;56915;52.046;4.854;2023-03-14T02:13:14;7.78;;;0.90;;
69678;SDS011;56915;52.046;4.854;2023-03-14T02:15:43;11.48;;;0.95;;
69678;SDS011;56915;52.046;4.854;2023-03-14T02:18:12;5.70;;;1.00;;
69678;SDS011;56915;52.046;4.854;2023-03-14T02:26:43;6.53;;;0.90;;
69678;SDS011;56915;52.046;4.854;2023-03-14T02:29:30;6.47;;;0.90;;
69678;SDS011;56915;52.046;4.854;2023-03-14T02:31:59;6.17;;;0.77;;
69678;SDS011;56915;52.046;4.854;2023-03-14T02:34:26;5.95;;;0.90;;
69678;SDS011;56915;52.046;4.854;2023-03-14T02:36:53;8.43;;;1.15;;
69678;SDS011;56915;52.046;4.854;2023-03-14T02:39:40;5.55;;;1.08;;
69678;SDS011;56915;52.046;4.854;2023-03-14T02:42:11;4.88;;;0.80;;
69678;SDS011;56915;52.046;4.854;2023-03-14T02:44:47;5.63;;;0.90;;
69678;SDS011;56915;52.046;4.854;2023-03-14T02:47:18;9.18;;;1.40;;
69678;SDS011;56915;52.046;4.854;2023-03-14T02:49:48;4.95;;;1.10;;
69678;SDS011;56915;52.046;4.854;2023-03-14T02:52:14;4.90;;;1.00;;
69678;SDS011;56915;52.046;4.854;2023-03-14T02:54:41;7.93;;;1.00;;
69678;SDS011;56915;52.046;4.854;2023-03-14T02:57:08;8.57;;;1.43;;
69678;SDS011;56915;52.046;4.854;2023-03-14T02:59:35;5.20;;;1.23;;
69678;SDS011;56915;52.046;4.854;2023-03-14T03:02:01;7.93;;;1.35;;
69678;SDS011;56915;52.046;4.854;2023-03-14T03:04:28;10.05;;;1.33;;
69678;SDS011;56915;52.046;4.854;2023-03-14T03:06:55;6.18;;;1.25;;
69678;SDS011;56915;52.046;4.854;2023-03-14T03:09:21;7.27;;;1.10;;
69678;SDS011;56915;52.046;4.854;2023-03-14T03:11:48;7.32;;;1.20;;
69678;SDS011;56915;52.046;4.854;2023-03-14T03:14:15;7.43;;;1.30;;
69678;SDS011;56915;52.046;4.854;2023-03-14T03:16:42;9.13;;;1.70;;
69678;SDS011;56915;52.046;4.854;2023-03-14T03:19:09;7.47;;;1.20;;
69678;SDS011;56915;52.046;4.854;2023-03-14T03:21:35;8.60;;;1.03;;
69678;SDS011;56915;52.046;4.854;2023-03-14T03:24:02;6.28;;;1.25;;
69678;SDS011;56915;52.046;4.854;2023-03-14T03:26:30;9.27;;;1.45;;
69678;SDS011;56915;52.046;4.854;2023-03-14T03:28:57;9.82;;;1.63;;
69678;SDS011;56915;52.046;4.854;2023-03-14T03:31:23;7.25;;;1.30;;
69678;SDS011;56915;52.046;4.854;2023-03-14T03:33:50;8.93;;;1.03;;
69678;SDS011;56915;52.046;4.854;2023-03-14T03:36:20;8.40;;;1.30;;
69678;SDS011;56915;52.046;4.854;2023-03-14T03:38:51;6.28;;;1.30;;
69678;SDS011;56915;52.046;4.854;2023-03-14T03:41:18;7.03;;;1.10;;
69678;SDS011;56915;52.046;4.854;2023-03-14T03:43:44;11.13;;;1.35;;
69678;SDS011;56915;52.046;4.854;2023-03-14T03:46:11;8.73;;;1.10;;
69678;SDS011;56915;52.046;4.854;2023-03-14T03:48:38;10.93;;;1.50;;
69678;SDS011;56915;52.046;4.854;2023-03-14T03:51:05;7.30;;;1.35;;
69678;SDS011;56915;52.046;4.854;2023-03-14T03:53:32;6.88;;;1.10;;
69678;SDS011;56915;52.046;4.854;2023-03-14T03:55:59;7.85;;;1.83;;
69678;SDS011;56915;52.046;4.854;2023-03-14T03:58:27;8.40;;;1.30;;
69678;SDS011;56915;52.046;4.854;2023-03-14T04:00:54;8.77;;;1.20;;
69678;SDS011;56915;52.046;4.854;2023-03-14T04:03:20;8.93;;;1.25;;
69678;SDS011;56915;52.046;4.854;2023-03-14T04:05:57;6.05;;;1.10;;
69678;SDS011;56915;52.046;4.854;2023-03-14T04:08:28;7.05;;;0.93;;
69678;SDS011;56915;52.046;4.854;2023-03-14T04:10:56;8.90;;;1.10;;
69678;SDS011;56915;52.046;4.854;2023-03-14T04:13:23;7.57;;;1.38;;
69678;SDS011;56915;52.046;4.854;2023-03-14T04:15:51;7.78;;;1.25;;
69678;SDS011;56915;52.046;4.854;2023-03-14T04:18:19;6.88;;;1.10;;
69678;SDS011;56915;52.046;4.854;2023-03-14T04:20:50;11.57;;;0.90;;
69678;SDS011;56915;52.046;4.854;2023-03-14T04:23:18;9.13;;;1.13;;
69678;SDS011;56915;52.046;4.854;2023-03-14T04:25:45;10.23;;;1.33;;
69678;SDS011;56915;52.046;4.854;2023-03-14T04:28:11;6.22;;;1.20;;
69678;SDS011;56915;52.046;4.854;2023-03-14T04:30:38;5.72;;;1.02;;
69678;SDS011;56915;52.046;4.854;2023-03-14T04:33:05;8.75;;;1.10;;
69678;SDS011;56915;52.046;4.854;2023-03-14T04:35:32;5.83;;;1.17;;
69678;SDS011;56915;52.046;4.854;2023-03-14T04:37:59;7.60;;;1.20;;
69678;SDS011;56915;52.046;4.854;2023-03-14T04:40:26;8.05;;;1.23;;
69678;SDS011;56915;52.046;4.854;2023-03-14T04:42:53;10.70;;;1.08;;
69678;SDS011;56915;52.046;4.854;2023-03-14T04:45:19;5.93;;;1.13;;
69678;SDS011;56915;52.046;4.854;2023-03-14T04:47:46;3.77;;;0.90;;
69678;SDS011;56915;52.046;4.854;2023-03-14T04:50:13;5.95;;;1.08;;
69678;SDS011;56915;52.046;4.854;2023-03-14T04:52:40;8.88;;;1.17;;
69678;SDS011;56915;52.046;4.854;2023-03-14T04:55:07;7.68;;;1.35;;
69678;SDS011;56915;52.046;4.854;2023-03-14T04:57:34;7.50;;;1.10;;
69678;SDS011;56915;52.046;4.854;2023-03-14T05:00:01;6.90;;;1.00;;
69678;SDS011;56915;52.046;4.854;2023-03-14T05:02:32;5.72;;;0.80;;
69678;SDS011;56915;52.046;4.854;2023-03-14T05:05:00;6.15;;;1.30;;
69678;SDS011;56915;52.046;4.854;2023-03-14T05:07:26;6.07;;;1.33;;
69678;SDS011;56915;52.046;4.854;2023-03-14T05:09:53;8.85;;;1.55;;
69678;SDS011;56915;52.046;4.854;2023-03-14T05:12:20;9.77;;;1.40;;
69678;SDS011;56915;52.046;4.854;2023-03-14T05:14:47;5.90;;;1.35;;
69678;SDS011;56915;52.046;4.854;2023-03-14T05:17:14;7.53;;;1.38;;
69678;SDS011;56915;52.046;4.854;2023-03-14T05:19:41;4.15;;;1.10;;
69678;SDS011;56915;52.046;4.854;2023-03-14T05:22:08;4.65;;;1.10;;
69678;SDS011;56915;52.046;4.854;2023-03-14T05:24:34;5.73;;;1.20;;
69678;SDS011;56915;52.046;4.854;2023-03-14T05:27:02;6.20;;;1.10;;
69678;SDS011;56915;52.046;4.854;2023-03-14T05:29:29;6.03;;;1.10;;
69678;SDS011;56915;52.046;4.854;2023-03-14T05:31:56;5.57;;;1.05;;
69678;SDS011;56915;52.046;4.854;2023-03-14T05:34:23;5.50;;;1.10;;
69678;SDS011;56915;52.046;4.854;2023-03-14T05:36:50;8.40;;;1.30;;
69678;SDS011;56915;52.046;4.854;2023-03-14T05:39:17;7.75;;;1.52;;
69678;SDS011;56915;52.046;4.854;2023-03-14T05:41:44;4.53;;;1.30;;
69678;SDS011;56915;52.046;4.854;2023-03-14T05:44:10;5.53;;;1.20;;
69678;SDS011;56915;52.046;4.854;2023-03-14T05:46:37;5.65;;;1.40;;
69678;SDS011;56915;52.046;4.854;2023-03-14T05:49:04;5.03;;;1.53;;
69678;SDS011;56915;52.046;4.854;2023-03-14T05:51:31;6.10;;;1.80;;
69678;SDS011;56915;52.046;4.854;2023-03-14T05:53:57;6.38;;;1.60;;
69678;SDS011;56915;52.046;4.854;2023-03-14T05:56:24;4.57;;;1.40;;
69678;SDS011;56915;52.046;4.854;2023-03-14T05:58:51;2.22;;;0.93;;
69678;SDS011;56915;52.046;4.854;2023-03-14T06:01:18;3.50;;;0.80;;
69678;SDS011;56915;52.046;4.854;2023-03-14T06:03:44;2.50;;;0.73;;
69678;SDS011;56915;52.046;4.854;2023-03-14T06:06:11;1.67;;;0.65;;
69678;SDS011;56915;52.046;4.854;2023-03-14T06:08:38;1.10;;;0.40;;
69678;SDS011;56915;52.046;4.854;2023-03-14T06:11:05;1.65;;;0.30;;
69678;SDS011;56915;52.046;4.854;2023-03-14T06:13:32;1.33;;;0.30;;
69678;SDS011;56915;52.046;4.854;2023-03-14T06:15:59;1.52;;;0.30;;
69678;SDS011;56915;52.046;4.854;2023-03-14T06:18:26;1.77;;;0.35;;
69678;SDS011;56915;52.046;4.854;2023-03-14T06:20:56;4.15;;;0.50;;
69678;SDS011;56915;52.046;4.854;2023-03-14T06:23:23;1.25;;;0.40;;
69678;SDS011;56915;52.046;4.854;2023-03-14T06:25:50;1.17;;;0.30;;
69678;SDS011;56915;52.046;4.854;2023-03-14T06:28:17;1.35;;;0.40;;
69678;SDS011;56915;52.046;4.854;2023-03-14T06:30:44;1.70;;;0.55;;
69678;SDS011;56915;52.046;4.854;2023-03-14T06:33:11;4.90;;;0.40;;
69678;SDS011;56915;52.046;4.854;2023-03-14T06:35:38;3.38;;;0.60;;
69678;SDS011;56915;52.046;4.854;2023-03-14T06:38:05;1.73;;;0.50;;
69678;SDS011;56915;52.046;4.854;2023-03-14T06:40:31;1.60;;;0.30;;
69678;SDS011;56915;52.046;4.854;2023-03-14T06:42:58;1.45;;;0.40;;
69678;SDS011;56915;52.046;4.854;2023-03-14T06:45:25;1.90;;;0.47;;
69678;SDS011;56915;52.046;4.854;2023-03-14T06:47:52;3.00;;;0.57;;
69678;SDS011;56915;52.046;4.854;2023-03-14T06:50:19;4.33;;;0.40;;
69678;SDS011;56915;52.046;4.854;2023-03-14T06:52:45;3.22;;;0.50;;
69678;SDS011;56915;52.046;4.854;2023-03-14T06:55:14;4.03;;;0.60;;
69678;SDS011;56915;52.046;4.854;2023-03-14T06:57:42;2.67;;;0.30;;
69678;SDS011;56915;52.046;4.854;2023-03-14T07:00:10;0.82;;;0.20;;
69678;SDS011;56915;52.046;4.854;2023-03-14T07:02:39;1.33;;;0.30;;
69678;SDS011;56915;52.046;4.854;2023-03-14T07:05:10;3.53;;;0.30;;
69678;SDS011;56915;52.046;4.854;2023-03-14T07:07:37;2.92;;;0.38;;
69678;SDS011;56915;52.046;4.854;2023-03-14T07:10:04;2.33;;;0.40;;
69678;SDS011;56915;52.046;4.854;2023-03-14T07:12:31;2.60;;;0.30;;
69678;SDS011;56915;52.046;4.854;2023-03-14T07:14:58;2.00;;;0.30;;
69678;SDS011;56915;52.046;4.854;2023-03-14T07:17:45;4.70;;;0.65;;
69678;SDS011;56915;52.046;4.854;2023-03-14T07:20:14;2.97;;;0.32;;
69678;SDS011;56915;52.046;4.854;2023-03-14T07:22:41;3.70;;;0.40;;
69678;SDS011;56915;52.046;4.854;2023-03-14T07:25:08;1.38;;;0.20;;
69678;SDS011;56915;52.046;4.854;2023-03-14T07:27:38;3.30;;;0.57;;
69678;SDS011;56915;52.046;4.854;2023-03-14T07:30:05;1.67;;;0.20;;
69678;SDS011;56915;52.046;4.854;2023-03-14T07:32:32;4.13;;;0.50;;
69678;SDS011;56915;52.046;4.854;2023-03-14T07:34:59;4.43;;;0.30;;
69678;SDS011;56915;52.046;4.854;2023-03-14T07:37:26;2.05;;;0.30;;
69678;SDS011;56915;52.046;4.854;2023-03-14T07:39:53;3.03;;;0.30;;
69678;SDS011;56915;52.046;4.854;2023-03-14T07:42:19;4.35;;;0.40;;
69678;SDS011;56915;52.046;4.854;2023-03-14T07:44:47;5.43;;;0.73;;
69678;SDS011;56915;52.046;4.854;2023-03-14T07:47:13;6.60;;;0.40;;
69678;SDS011;56915;52.046;4.854;2023-03-14T07:49:40;2.88;;;0.30;;
69678;SDS011;56915;52.046;4.854;2023-03-14T07:52:07;2.53;;;0.70;;
69678;SDS011;56915;52.046;4.854;2023-03-14T07:54:34;3.65;;;0.40;;
69678;SDS011;56915;52.046;4.854;2023-03-14T07:57:00;4.88;;;0.43;;
69678;SDS011;56915;52.046;4.854;2023-03-14T07:59:27;3.63;;;0.40;;
69678;SDS011;56915;52.046;4.854;2023-03-14T08:01:54;5.28;;;0.60;;
69678;SDS011;56915;52.046;4.854;2023-03-14T08:04:21;3.47;;;0.43;;
69678;SDS011;56915;52.046;4.854;2023-03-14T08:06:48;4.88;;;0.60;;
69678;SDS011;56915;52.046;4.854;2023-03-14T08:09:14;3.63;;;0.60;;
69678;SDS011;56915;52.046;4.854;2023-03-14T08:11:41;3.75;;;0.80;;
69678;SDS011;56915;52.046;4.854;2023-03-14T08:14:08;2.38;;;0.50;;
69678;SDS011;56915;52.046;4.854;2023-03-14T08:16:35;2.10;;;0.40;;
69678;SDS011;56915;52.046;4.854;2023-03-14T08:19:02;1.17;;;0.47;;
69678;SDS011;56915;52.046;4.854;2023-03-14T08:21:29;0.73;;;0.22;;
69678;SDS011;56915;52.046;4.854;2023-03-14T08:23:56;1.00;;;0.30;;
69678;SDS011;56915;52.046;4.854;2023-03-14T08:26:23;4.28;;;0.40;;
69678;SDS011;56915;52.046;4.854;2023-03-14T08:28:50;1.13;;;0.30;;
69678;SDS011;56915;52.046;4.854;2023-03-14T08:31:16;1.90;;;0.30;;
69678;SDS011;56915;52.046;4.854;2023-03-14T08:33:43;2.15;;;0.30;;
69678;SDS011;56915;52.046;4.854;2023-03-14T08:36:10;4.80;;;0.60;;
69678;SDS011;56915;52.046;4.854;2023-03-14T08:38:37;2.92;;;0.50;;
69678;SDS011;56915;52.046;4.854;2023-03-14T08:41:04;2.53;;;0.30;;
69678;SDS011;56915;52.046;4.854;2023-03-14T08:43:31;1.52;;;0.30;;
69678;SDS011;56915;52.046;4.854;2023-03-14T08:45:58;2.42;;;0.40;;
69678;SDS011;56915;52.046;4.854;2023-03-14T08:48:26;2.22;;;0.50;;
69678;SDS011;56915;52.046;4.854;2023-03-14T08:51:03;5.00;;;0.75;;
69678;SDS011;56915;52.046;4.854;2023-03-14T08:53:38;2.83;;;0.40;;
69678;SDS011;56915;52.046;4.854;2023-03-14T08:56:06;3.15;;;0.57;;
69678;SDS011;56915;52.046;4.854;2023-03-14T08:58:36;5.68;;;0.80;;
69678;SDS011;56915;52.046;4.854;2023-03-14T09:01:05;3.08;;;0.40;;
69678;SDS011;56915;52.046;4.854;2023-03-14T09:03:32;2.38;;;0.68;;
69678;SDS011;56915;52.046;4.854;2023-03-14T09:06:05;4.17;;;0.87;;
69678;SDS011;56915;52.046;4.854;2023-03-14T09:08:34;4.30;;;0.50;;
69678;SDS011;56915;52.046;4.854;2023-03-14T09:11:06;4.35;;;0.85;;
69678;SDS011;56915;52.046;4.854;2023-03-14T09:13:34;4.00;;;0.60;;
69678;SDS011;56915;52.046;4.854;2023-03-14T09:16:01;5.18;;;0.45;;
69678;SDS011;56915;52.046;4.854;2023-03-14T09:18:28;1.97;;;0.27;;
69678;SDS011;56915;52.046;4.854;2023-03-14T09:20:55;3.80;;;0.73;;
69678;SDS011;56915;52.046;4.854;2023-03-14T09:23:22;8.07;;;0.90;;
69678;SDS011;56915;52.046;4.854;2023-03-14T09:25:53;5.30;;;0.52;;
69678;SDS011;56915;52.046;4.854;2023-03-14T09:28:21;4.93;;;0.75;;
69678;SDS011;56915;52.046;4.854;2023-03-14T09:30:48;12.83;;;1.17;;
69678;SDS011;56915;52.046;4.854;2023-03-14T09:33:16;4.60;;;1.00;;
69678;SDS011;56915;52.046;4.854;2023-03-14T09:35:43;6.93;;;0.68;;
69678;SDS011;56915;52.046;4.854;2023-03-14T09:38:10;6.82;;;1.00;;
69678;SDS011;56915;52.046;4.854;2023-03-14T09:40:38;9.02;;;1.00;;
69678;SDS011;56915;52.046;4.854;2023-03-14T09:43:05;5.63;;;0.77;;
69678;SDS011;56915;52.046;4.854;2023-03-14T09:45:36;10.63;;;1.08;;
69678;SDS011;56915;52.046;4.854;2023-03-14T09:48:08;14.25;;;1.38;;
69678;SDS011;56915;52.046;4.854;2023-03-14T09:50:50;4.72;;;1.15;;
69678;SDS011;56915;52.046;4.854;2023-03-14T09:53:21;6.32;;;0.80;;
69678;SDS011;56915;52.046;4.854;2023-03-14T09:55:52;6.73;;;1.17;;
69678;SDS011;56915;52.046;4.854;2023-03-14T09:58:21;10.68;;;1.27;;
69678;SDS011;56915;52.046;4.854;2023-03-14T10:00:51;11.63;;;1.90;;
69678;SDS011;56915;52.046;4.854;2023-03-14T10:03:26;11.95;;;1.33;;
69678;SDS011;56915;52.046;4.854;2023-03-14T10:05:58;5.03;;;1.23;;
69678;SDS011;56915;52.046;4.854;2023-03-14T10:08:25;10.00;;;1.03;;
69678;SDS011;56915;52.046;4.854;2023-03-14T10:10:52;8.13;;;1.10;;
69678;SDS011;56915;52.046;4.854;2023-03-14T10:13:22;8.25;;;0.85;;
69678;SDS011;56915;52.046;4.854;2023-03-14T10:15:58;10.65;;;1.10;;
69678;SDS011;56915;52.046;4.854;2023-03-14T10:18:25;12.75;;;0.90;;
69678;SDS011;56915;52.046;4.854;2023-03-14T10:21:02;10.30;;;1.00;;
69678;SDS011;56915;52.046;4.854;2023-03-14T10:23:33;10.57;;;1.10;;
69678;SDS011;56915;52.046;4.854;2023-03-14T10:26:11;10.32;;;1.10;;
69678;SDS011;56915;52.046;4.854;2023-03-14T10:28:44;9.68;;;1.35;;
69678;SDS011;56915;52.046;4.854;2023-03-14T10:31:14;12.98;;;1.38;;
69678;SDS011;56915;52.046;4.854;2023-03-14T10:33:41;8.07;;;1.27;;
69678;SDS011;56915;52.046;4.854;2023-03-14T10:38:49;13.60;;;1.42;;
69678;SDS011;56915;52.046;4.854;2023-03-14T10:41:20;6.90;;;1.17;;
69678;SDS011;56915;52.046;4.854;2023-03-14T10:43:53;9.73;;;1.70;;
69678;SDS011;56915;52.046;4.854;2023-03-14T10:46:23;11.43;;;1.10;;
69678;SDS011;56915;52.046;4.854;2023-03-14T10:48:53;8.15;;;0.90;;
69678;SDS011;56915;52.046;4.854;2023-03-14T10:51:24;10.50;;;1.33;;
69678;SDS011;56915;52.046;4.854;2023-03-14T10:53:58;9.82;;;1.13;;
69678;SDS011;56915;52.046;4.854;2023-03-14T10:56:27;13.15;;;1.20;;
69678;SDS011;56915;52.046;4.854;2023-03-14T10:59:01;9.00;;;0.80;;
69678;SDS011;56915;52.046;4.854;2023-03-14T11:04:26;7.68;;;0.88;;
69678;SDS011;56915;52.046;4.854;2023-03-14T11:07:27;8.18;;;0.98;;
69678;SDS011;56915;52.046;4.854;2023-03-14T11:10:01;8.73;;;1.45;;
69678;SDS011;56915;52.046;4.854;2023-03-14T11:12:57;7.97;;;1.13;;
69678;SDS011;56915;52.046;4.854;2023-03-14T11:16:05;13.48;;;1.48;;
69678;SDS011;56915;52.046;4.854;2023-03-14T11:32:04;9.93;;;0.90;;
69678;SDS011;56915;52.046;4.854;2023-03-14T11:34:53;3.10;;;0.80;;
69678;SDS011;56915;52.046;4.854;2023-03-14T11:37:34;8.82;;;0.98;;
69678;SDS011;56915;52.046;4.854;2023-03-14T11:45:30;4.55;;;0.55;;
69678;SDS011;56915;52.046;4.854;2023-03-14T11:48:15;5.57;;;0.77;;
69678;SDS011;56915;52.046;4.854;2023-03-14T11:50:50;5.63;;;0.68;;
69678;SDS011;56915;52.046;4.854;2023-03-14T11:53:19;6.47;;;0.80;;
69678;SDS011;56915;52.046;4.854;2023-03-14T11:55:55;2.72;;;0.60;;
69678;SDS011;56915;52.046;4.854;2023-03-14T11:58:33;4.72;;;0.77;;
69678;SDS011;56915;52.046;4.854;2023-03-14T12:01:06;6.35;;;0.77;;
69678;SDS011;56915;52.046;4.854;2023-03-14T12:03:49;6.80;;;0.70;;
69678;SDS011;56915;52.046;4.854;2023-03-14T12:06:25;4.20;;;0.60;;
69678;SDS011;56915;52.046;4.854;2023-03-14T12:09:08;4.22;;;0.47;;
69678;SDS011;56915;52.046;4.854;2023-03-14T12:11:41;10.82;;;1.33;;
69678;SDS011;56915;52.046;4.854;2023-03-14T12:14:17;5.05;;;0.60;;
69678;SDS011;56915;52.046;4.854;2023-03-14T12:16:48;8.75;;;0.60;;
69678;SDS011;56915;52.046;4.854;2023-03-14T12:24:30;6.47;;;0.75;;
69678;SDS011;56915;52.046;4.854;2023-03-14T12:27:00;4.80;;;0.70;;
69678;SDS011;56915;52.046;4.854;2023-03-14T12:29:29;3.78;;;0.77;;
69678;SDS011;56915;52.046;4.854;2023-03-14T12:32:06;3.00;;;0.60;;
69678;SDS011;56915;52.046;4.854;2023-03-14T12:34:42;6.25;;;0.70;;
69678;SDS011;56915;52.046;4.854;2023-03-14T12:37:19;3.38;;;0.50;;
69678;SDS011;56915;52.046;4.854;2023-03-14T12:42:37;5.60;;;0.55;;
69678;SDS011;56915;52.046;4.854;2023-03-14T12:45:30;3.50;;;0.60;;
69678;SDS011;56915;52.046;4.854;2023-03-14T12:48:03;4.45;;;0.40;;
69678;SDS011;56915;52.046;4.854;2023-03-14T12:50:42;1.77;;;0.32;;
69678;SDS011;56915;52.046;4.854;2023-03-14T12:59:09;6.37;;;0.90;;
69678;SDS011;56915;52.046;4.854;2023-03-14T13:01:46;2.75;;;0.73;;
69678;SDS011;56915;52.046;4.854;2023-03-14T13:04:29;7.00;;;0.70;;
69678;SDS011;56915;52.046;4.854;2023-03-14T13:07:04;2.40;;;0.52;;
69678;SDS011;56915;52.046;4.854;2023-03-14T13:12:25;3.10;;;0.50;;
69678;SDS011;56915;52.046;4.854;2023-03-14T13:14:58;6.50;;;0.70;;
69678;SDS011;56915;52.046;4.854;2023-03-14T13:17:32;3.45;;;0.55;;
69678;SDS011;56915;52.046;4.854;2023-03-14T13:22:56;3.72;;;0.60;;
69678;SDS011;56915;52.046;4.854;2023-03-14T13:25:23;2.13;;;0.30;;
69678;SDS011;56915;52.046;4.854;2023-03-14T13:27:52;1.75;;;0.47;;
69678;SDS011;56915;52.046;4.854;2023-03-14T13:30:23;3.80;;;0.50;;
69678;SDS011;56915;52.046;4.854;2023-03-14T13:32:52;1.17;;;0.40;;
69678;SDS011;56915;52.046;4.854;2023-03-14T13:35:28;3.67;;;0.65;;
69678;SDS011;56915;52.046;4.854;2023-03-14T13:38:05;3.83;;;0.37;;
69678;SDS011;56915;52.046;4.854;2023-03-14T13:40:41;4.38;;;0.43;;
69678;SDS011;56915;52.046;4.854;2023-03-14T13:45:48;5.30;;;0.45;;
69678;SDS011;56915;52.046;4.854;2023-03-14T13:48:16;1.83;;;0.32;;
69678;SDS011;56915;52.046;4.854;2023-03-14T13:50:54;2.63;;;0.40;;
69678;SDS011;56915;52.046;4.854;2023-03-14T13:53:24;3.90;;;0.55;;
69678;SDS011;56915;52.046;4.854;2023-03-14T13:55:52;4.63;;;0.60;;
69678;SDS011;56915;52.046;4.854;2023-03-14T13:58:24;3.90;;;0.55;;
69678;SDS011;56915;52.046;4.854;2023-03-14T14:00:54;2.58;;;0.47;;
69678;SDS011;56915;52.046;4.854;2023-03-14T14:03:23;6.10;;;1.17;;
69678;SDS011;56915;52.046;4.854;2023-03-14T14:05:50;3.92;;;0.40;;
69678;SDS011;56915;52.046;4.854;2023-03-14T14:08:17;2.28;;;0.50;;
69678;SDS011;56915;52.046;4.854;2023-03-14T14:10:43;2.88;;;0.47;;
69678;SDS011;56915;52.046;4.854;2023-03-14T14:13:14;4.45;;;0.43;;
69678;SDS011;56915;52.046;4.854;2023-03-14T14:15:46;3.33;;;0.40;;
69678;SDS011;56915;52.046;4.854;2023-03-14T14:18:16;4.82;;;0.65;;
69678;SDS011;56915;52.046;4.854;2023-03-14T14:20:46;4.38;;;0.60;;
69678;SDS011;56915;52.046;4.854;2023-03-14T14:23:15;4.80;;;0.65;;
69678;SDS011;56915;52.046;4.854;2023-03-14T14:25:46;6.05;;;0.57;;
69678;SDS011;56915;52.046;4.854;2023-03-14T14:31:02;5.85;;;0.65;;
69678;SDS011;56915;52.046;4.854;2023-03-14T14:33:41;1.92;;;0.50;;
69678;SDS011;56915;52.046;4.854;2023-03-14T14:36:14;5.15;;;0.50;;
69678;SDS011;56915;52.046;4.854;2023-03-14T14:38:54;5.47;;;0.50;;
69678;SDS011;56915;52.046;4.854;2023-03-14T14:41:26;3.63;;;0.70;;
69678;SDS011;56915;52.046;4.854;2023-03-14T14:43:57;3.55;;;0.47;;
69678;SDS011;56915;52.046;4.854;2023-03-14T14:46:26;4.72;;;0.60;;
69678;SDS011;56915;52.046;4.854;2023-03-14T14:48:56;2.85;;;0.57;;
69678;SDS011;56915;52.046;4.854;2023-03-14T14:51:31;4.80;;;0.70;;
69678;SDS011;56915;52.046;4.854;2023-03-14T14:54:05;4.40;;;0.37;;
69678;SDS011;56915;52.046;4.854;2023-03-14T14:56:40;3.55;;;0.50;;
69678;SDS011;56915;52.046;4.854;2023-03-14T14:59:18;4.78;;;0.50;;
69678;SDS011;56915;52.046;4.854;2023-03-14T15:01:48;3.80;;;0.40;;
69678;SDS011;56915;52.046;4.854;2023-03-14T15:04:17;6.45;;;0.55;;
69678;SDS011;56915;52.046;4.854;2023-03-14T15:06:45;1.53;;;0.40;;
69678;SDS011;56915;52.046;4.854;2023-03-14T15:09:14;6.80;;;0.52;;
69678;SDS011;56915;52.046;4.854;2023-03-14T15:11:43;2.80;;;0.40;;
69678;SDS011;56915;52.046;4.854;2023-03-14T15:14:10;5.20;;;0.50;;
69678;SDS011;56915;52.046;4.854;2023-03-14T15:16:37;6.18;;;0.50;;
69678;SDS011;56915;52.046;4.854;2023-03-14T15:19:12;1.27;;;0.30;;
69678;SDS011;56915;52.046;4.854;2023-03-14T15:21:51;4.50;;;0.40;;
69678;SDS011;56915;52.046;4.854;2023-03-14T15:24:18;3.50;;;0.60;;
69678;SDS011;56915;52.046;4.854;2023-03-14T15:26:45;3.30;;;0.60;;
69678;SDS011;56915;52.046;4.854;2023-03-14T15:29:12;8.25;;;0.40;;
69678;SDS011;56915;52.046;4.854;2023-03-14T15:31:39;3.13;;;0.50;;
69678;SDS011;56915;52.046;4.854;2023-03-14T15:34:06;5.00;;;0.82;;
69678;SDS011;56915;52.046;4.854;2023-03-14T15:36:35;2.47;;;0.60;;
69678;SDS011;56915;52.046;4.854;2023-03-14T15:39:03;3.70;;;0.50;;
69678;SDS011;56915;52.046;4.854;2023-03-14T15:41:31;4.30;;;0.50;;
69678;SDS011;56915;52.046;4.854;2023-03-14T15:43:58;7.17;;;0.60;;
69678;SDS011;56915;52.046;4.854;2023-03-14T15:46:25;4.55;;;0.60;;
69678;SDS011;56915;52.046;4.854;2023-03-14T15:48:54;3.80;;;0.52;;
69678;SDS011;56915;52.046;4.854;2023-03-14T15:51:21;2.53;;;0.60;;
69678;SDS011;56915;52.046;4.854;2023-03-14T15:53:48;2.50;;;0.57;;
69678;SDS011;56915;52.046;4.854;2023-03-14T15:56:16;4.07;;;0.60;;